Terminal Aerodrome Forecast
Issued by NWS Green Bay, WI

Home | Current Version | Previous Version | Text Only | Print | Product List | Glossary On
Versions: 1 2 3 4 5 6 7 8 9 10 11 12 13 14 15 16 17 18 19 20 21 22 23 24 25 26 27 28 29 30 31 32 33
000
FTUS43 KGRB 231743
TAFGRB
TAF
KGRB 231743Z 2318/2418 13005KT P6SM SCT120 BKN200
     FM232100 13007KT P6SM SCT080 BKN150
     FM240300 15005KT P6SM BKN060
     FM240500 16006KT P6SM SCT025 OVC040 WS020/21035KT
      TEMPO 2405/2409 2SM TSRA BKN025CB
     FM240900 19007KT 5SM -SHRA BR OVC025 WS020/21035KT
     FM241500 22010G18KT 6SM HZ SCT025 BKN050=

USA.gov is the U.S. government's official web portal to all federal, state and local government web resources and services.